createdAt,value
2023-02-17T00:01:31.252Z,21.73
2023-02-17T00:04:09.125Z,20.60
2023-02-17T00:06:41.678Z,22.73
2023-02-17T00:09:14.368Z,23.10
2023-02-17T00:11:47.307Z,22.45
2023-02-17T00:14:18.020Z,21.95
2023-02-17T00:16:50.858Z,18.42
2023-02-17T00:19:26.406Z,20.55
2023-02-17T00:21:59.919Z,20.98
2023-02-17T00:24:32.266Z,17.60
2023-02-17T00:27:02.791Z,18.67
2023-02-17T00:29:33.346Z,18.67
2023-02-17T00:32:06.432Z,15.05
2023-02-17T00:34:39.614Z,19.17
2023-02-17T00:37:10.122Z,20.47
2023-02-17T00:39:40.598Z,19.40
2023-02-17T00:42:10.751Z,18.20
2023-02-17T00:44:43.136Z,18.08
2023-02-17T00:47:15.700Z,17.52
2023-02-17T00:49:52.192Z,21.35
2023-02-17T00:52:24.472Z,18.65
2023-02-17T00:54:54.656Z,17.60
2023-02-17T00:57:24.955Z,19.30
2023-02-17T00:59:55.389Z,19.00
2023-02-17T01:02:25.648Z,17.40
2023-02-17T01:04:58.755Z,15.85
2023-02-17T01:07:29.059Z,16.77
2023-02-17T01:09:59.291Z,18.55
2023-02-17T01:12:33.046Z,18.25
2023-02-17T01:15:03.970Z,16.15
2023-02-17T01:17:34.215Z,16.63
2023-02-17T01:20:10.915Z,17.55
2023-02-17T01:22:41.738Z,16.63
2023-02-17T01:25:15.295Z,16.35
2023-02-17T01:27:47.755Z,15.25
2023-02-17T01:30:18.417Z,17.70
2023-02-17T01:32:55.795Z,18.20
2023-02-17T01:35:28.642Z,18.73
2023-02-17T01:37:58.962Z,19.13
2023-02-17T01:40:31.284Z,18.10
2023-02-17T01:43:04.516Z,17.02
2023-02-17T01:45:38.451Z,17.83
2023-02-17T01:48:14.820Z,18.30
2023-02-17T01:50:57.412Z,17.58
2023-02-17T01:53:36.547Z,19.95
2023-02-17T01:56:10.371Z,17.23
2023-02-17T02:01:20.684Z,16.95
2023-02-17T02:03:51.322Z,19.05
2023-02-17T02:06:29.049Z,18.88
2023-02-17T02:09:06.794Z,17.60
2023-02-17T02:11:38.734Z,17.73
2023-02-17T02:14:11.652Z,18.67
2023-02-17T02:16:49.709Z,19.73
2023-02-17T02:19:50.270Z,18.75
2023-02-17T02:22:55.982Z,18.98
2023-02-17T02:25:49.851Z,16.15
2023-02-17T02:28:33.999Z,18.08
2023-02-17T02:31:21.719Z,17.40
2023-02-17T02:34:04.292Z,18.63
2023-02-17T02:36:38.668Z,17.95
2023-02-17T02:39:21.085Z,19.55
2023-02-17T02:41:56.361Z,19.08
2023-02-17T02:44:29.386Z,16.98
2023-02-17T02:47:00.685Z,18.67
2023-02-17T02:49:36.439Z,21.90
2023-02-17T02:52:12.591Z,19.75
2023-02-17T02:54:55.020Z,20.23
2023-02-17T02:57:42.728Z,20.80
2023-02-17T03:00:23.358Z,20.50
2023-02-17T03:02:58.726Z,19.92
2023-02-17T03:05:40.973Z,20.45
2023-02-17T03:08:15.854Z,20.60
2023-02-17T03:10:49.862Z,19.42
2023-02-17T03:13:21.347Z,19.77
2023-02-17T03:15:54.443Z,20.75
2023-02-17T03:18:24.759Z,19.47
2023-02-17T03:21:00.789Z,20.08
2023-02-17T03:23:31.100Z,19.20
2023-02-17T03:26:01.491Z,18.65
2023-02-17T03:28:31.907Z,17.02
2023-02-17T03:31:02.176Z,19.95
2023-02-17T03:33:32.740Z,20.92
2023-02-17T03:36:05.736Z,17.25
2023-02-17T03:38:36.814Z,19.30
2023-02-17T03:41:07.791Z,18.20
2023-02-17T03:43:38.267Z,18.02
2023-02-17T03:46:12.878Z,19.67
2023-02-17T03:48:43.309Z,20.23
2023-02-17T03:51:21.978Z,18.58
2023-02-17T03:53:53.189Z,18.67
2023-02-17T03:56:23.922Z,19.70
2023-02-17T03:58:54.361Z,18.38
2023-02-17T04:01:27.128Z,18.70
2023-02-17T04:03:59.618Z,17.27
2023-02-17T04:06:32.518Z,17.55
2023-02-17T04:09:05.047Z,17.75
2023-02-17T04:11:40.678Z,18.00
2023-02-17T04:14:10.864Z,18.10
2023-02-17T04:16:43.903Z,18.10
2023-02-17T04:19:14.322Z,18.45
2023-02-17T04:21:50.009Z,17.83
2023-02-17T04:24:20.245Z,17.67
2023-02-17T04:26:50.449Z,16.67
2023-02-17T04:29:21.960Z,17.45
2023-02-17T04:31:55.818Z,16.95
2023-02-17T04:37:01.030Z,16.40
2023-02-17T04:39:31.178Z,16.20
2023-02-17T04:42:04.687Z,17.30
2023-02-17T04:47:05.877Z,18.60
2023-02-17T04:49:36.412Z,19.27
2023-02-17T04:52:13.030Z,19.70
2023-02-17T04:54:43.444Z,17.50
2023-02-17T04:57:16.568Z,18.95
2023-02-17T04:59:47.779Z,17.73
2023-02-17T05:02:18.065Z,19.25
2023-02-17T05:04:48.732Z,19.98
2023-02-17T05:07:21.575Z,18.60
2023-02-17T05:09:52.146Z,20.67
2023-02-17T05:12:22.802Z,20.77
2023-02-17T05:14:53.339Z,19.80
2023-02-17T05:17:30.600Z,20.02
2023-02-17T05:20:01.524Z,19.30
2023-02-17T05:22:34.391Z,19.83
2023-02-17T05:25:04.650Z,20.48
2023-02-17T05:27:35.166Z,18.17
2023-02-17T05:30:10.402Z,19.40
2023-02-17T05:32:52.831Z,19.27
2023-02-17T05:35:23.358Z,20.50
2023-02-17T05:37:56.199Z,21.05
2023-02-17T05:40:26.485Z,20.65
2023-02-17T05:42:59.069Z,18.38
2023-02-17T05:45:34.687Z,18.15
2023-02-17T05:48:05.922Z,19.27
2023-02-17T05:50:36.848Z,21.17
2023-02-17T05:53:10.054Z,21.50
2023-02-17T05:55:40.642Z,18.73
2023-02-17T05:58:11.009Z,21.10
2023-02-17T06:00:41.270Z,20.17
2023-02-17T06:03:13.649Z,17.50
2023-02-17T06:05:48.447Z,17.25
2023-02-17T06:08:21.409Z,18.85
2023-02-17T06:10:54.122Z,19.75
2023-02-17T06:13:24.894Z,19.50
2023-02-17T06:15:55.144Z,19.40
2023-02-17T06:18:25.288Z,21.00
2023-02-17T06:20:58.183Z,18.92
2023-02-17T06:23:34.018Z,20.27
2023-02-17T06:26:04.616Z,19.00
2023-02-17T06:28:35.274Z,21.98
2023-02-17T06:31:05.581Z,21.33
2023-02-17T06:33:36.441Z,20.10
2023-02-17T06:36:07.502Z,20.30
2023-02-17T06:38:40.662Z,19.90
2023-02-17T06:41:15.998Z,24.70
2023-02-17T06:43:49.114Z,24.20
2023-02-17T06:46:19.291Z,21.65
2023-02-17T06:48:49.693Z,22.58
2023-02-17T06:51:22.948Z,21.70
2023-02-17T06:53:58.204Z,24.65
2023-02-17T06:56:30.585Z,24.95
2023-02-17T06:59:00.990Z,24.08
2023-02-17T07:01:32.765Z,29.30
2023-02-17T07:04:03.180Z,32.83
2023-02-17T07:06:33.339Z,32.15
2023-02-17T07:09:11.635Z,33.25
2023-02-17T07:11:47.142Z,33.70
2023-02-17T07:14:17.584Z,34.20
2023-02-17T07:16:50.303Z,32.97
2023-02-17T07:19:20.624Z,32.33
2023-02-17T07:21:51.241Z,31.65
2023-02-17T07:24:26.697Z,32.33
2023-02-17T07:26:57.068Z,33.83
2023-02-17T07:29:30.814Z,34.22
2023-02-17T07:32:01.177Z,34.00
2023-02-17T07:34:31.835Z,38.20
2023-02-17T07:37:07.042Z,33.50
2023-02-17T07:39:40.947Z,36.05
2023-02-17T07:42:12.260Z,35.97
2023-02-17T07:44:45.171Z,35.25
2023-02-17T07:47:15.715Z,34.00
2023-02-17T07:49:46.156Z,35.40
2023-02-17T07:52:19.394Z,34.28
2023-02-17T07:54:56.207Z,31.95
2023-02-17T07:57:26.512Z,32.85
2023-02-17T07:59:56.794Z,35.42
2023-02-17T08:02:30.779Z,30.25
2023-02-17T08:05:03.544Z,33.17
2023-02-17T08:07:36.567Z,31.83
2023-02-17T08:10:30.483Z,29.13
2023-02-17T08:13:14.448Z,31.65
2023-02-17T08:15:44.655Z,32.88
2023-02-17T08:18:16.203Z,34.08
2023-02-17T08:20:46.666Z,28.98
2023-02-17T08:23:19.984Z,32.67
2023-02-17T08:25:52.806Z,29.00
2023-02-17T08:28:23.082Z,30.35
2023-02-17T08:30:53.494Z,35.15
2023-02-17T08:33:26.909Z,31.58
2023-02-17T08:35:57.790Z,29.75
2023-02-17T08:38:31.243Z,31.48
2023-02-17T08:41:06.813Z,28.38
2023-02-17T08:43:44.478Z,33.78
2023-02-17T08:46:20.797Z,30.60
2023-02-17T08:48:52.731Z,32.70
2023-02-17T08:51:26.338Z,31.77
2023-02-17T08:53:58.769Z,32.42
2023-02-17T08:56:32.578Z,31.13
2023-02-17T08:59:03.628Z,32.80
2023-02-17T09:01:35.101Z,30.15
2023-02-17T09:04:12.007Z,32.03
2023-02-17T09:06:44.244Z,32.28
2023-02-17T09:09:16.808Z,32.70
2023-02-17T09:11:49.735Z,34.83
2023-02-17T09:14:22.974Z,35.10
2023-02-17T09:16:56.116Z,31.77
2023-02-17T09:19:29.512Z,30.80
2023-02-17T09:21:59.931Z,29.95
2023-02-17T09:24:33.213Z,29.90
2023-02-17T09:27:06.221Z,31.33
2023-02-17T09:29:37.539Z,28.83
2023-02-17T09:32:10.525Z,25.70
2023-02-17T09:34:42.428Z,27.70
2023-02-17T09:37:15.009Z,26.30
2023-02-17T09:39:45.231Z,28.02
2023-02-17T09:42:23.309Z,29.40
2023-02-17T09:45:01.661Z,26.23
2023-02-17T09:47:40.129Z,28.48
2023-02-17T09:50:15.035Z,26.83
2023-02-17T09:52:54.187Z,25.05
2023-02-17T09:55:28.460Z,29.23
2023-02-17T09:58:09.718Z,23.83
2023-02-17T10:00:47.045Z,27.17
2023-02-17T10:03:21.458Z,25.58
2023-02-17T10:05:56.201Z,27.00
2023-02-17T10:08:34.881Z,26.75
2023-02-17T10:11:11.593Z,25.25
2023-02-17T10:13:47.780Z,23.92
2023-02-17T10:16:25.116Z,25.38
2023-02-17T10:19:02.349Z,20.88
2023-02-17T10:21:38.738Z,24.40
2023-02-17T10:24:09.318Z,26.92
2023-02-17T10:27:03.575Z,24.42
2023-02-17T10:29:44.900Z,20.48
2023-02-17T10:32:26.040Z,21.98
2023-02-17T10:35:13.564Z,24.88
2023-02-17T10:37:49.875Z,23.92
2023-02-17T10:40:26.263Z,21.20
2023-02-17T10:43:00.168Z,25.05
2023-02-17T10:45:38.252Z,23.85
2023-02-17T10:48:14.874Z,23.17
2023-02-17T10:50:48.427Z,27.38
2023-02-17T10:53:22.857Z,25.17
2023-02-17T10:56:04.394Z,25.10
2023-02-17T10:58:42.298Z,24.40
2023-02-17T11:01:19.877Z,25.20
2023-02-17T11:03:50.360Z,19.52
2023-02-17T11:06:23.582Z,18.40
2023-02-17T11:08:57.280Z,16.35
2023-02-17T11:11:29.528Z,15.60
2023-02-17T11:14:12.673Z,15.40
2023-02-17T11:16:48.160Z,14.77
2023-02-17T11:19:27.508Z,16.25
2023-02-17T11:22:02.924Z,15.85
2023-02-17T11:24:38.870Z,14.68
2023-02-17T11:27:13.147Z,15.45
2023-02-17T11:29:43.717Z,17.38
2023-02-17T11:32:17.692Z,16.98
2023-02-17T11:34:47.964Z,16.93
2023-02-17T11:37:32.547Z,17.50
2023-02-17T11:40:03.219Z,15.63
2023-02-17T11:42:35.721Z,17.25
2023-02-17T11:45:21.323Z,17.92
2023-02-17T11:48:29.325Z,15.85
2023-02-17T11:51:08.037Z,17.17
2023-02-17T11:53:51.771Z,16.15
2023-02-17T11:56:26.908Z,16.02
2023-02-17T11:59:19.543Z,16.15
2023-02-17T12:02:02.191Z,16.10
2023-02-17T12:04:37.368Z,15.23
2023-02-17T12:07:40.331Z,14.98
2023-02-17T12:10:19.370Z,14.85
2023-02-17T12:13:01.762Z,15.00
2023-02-17T12:16:02.303Z,14.27
2023-02-17T12:19:07.682Z,14.75
2023-02-17T12:21:51.143Z,15.10
2023-02-17T12:24:44.522Z,15.00
2023-02-17T12:27:27.867Z,14.30
2023-02-17T12:30:13.702Z,13.80
2023-02-17T12:33:06.075Z,15.23
2023-02-17T12:35:45.726Z,15.07
2023-02-17T12:38:26.997Z,16.25
2023-02-17T12:41:07.976Z,14.35
2023-02-17T12:43:44.035Z,14.43
2023-02-17T12:46:18.562Z,14.18
2023-02-17T12:48:58.891Z,14.50
2023-02-17T12:51:36.199Z,17.20
2023-02-17T12:54:20.994Z,18.10
2023-02-17T12:57:16.168Z,15.80
2023-02-17T12:59:50.452Z,15.30
2023-02-17T13:02:22.566Z,12.15
2023-02-17T13:04:55.017Z,10.68
2023-02-17T13:07:47.038Z,10.70
2023-02-17T13:10:36.702Z,9.98
2023-02-17T13:13:10.365Z,9.38
2023-02-17T13:15:43.473Z,8.15
2023-02-17T13:18:29.602Z,8.93
2023-02-17T13:21:02.618Z,7.22
2023-02-17T13:23:41.700Z,5.88
2023-02-17T13:26:28.936Z,5.10
2023-02-17T13:29:21.940Z,5.15
2023-02-17T13:32:01.594Z,4.63
2023-02-17T13:34:36.401Z,6.13
2023-02-17T13:37:21.394Z,6.07
2023-02-17T13:39:54.443Z,5.20
2023-02-17T13:42:41.098Z,6.07
2023-02-17T13:45:24.067Z,6.18
2023-02-17T13:47:56.517Z,6.20
2023-02-17T13:50:36.445Z,6.85
2023-02-17T13:53:25.885Z,6.72
2023-02-17T13:55:58.067Z,5.95
2023-02-17T13:58:33.351Z,6.28
2023-02-17T14:01:05.814Z,6.75
2023-02-17T14:03:38.869Z,7.25
2023-02-17T14:06:13.915Z,6.47
2023-02-17T14:08:45.986Z,7.35
2023-02-17T14:11:19.610Z,6.03
2023-02-17T14:13:55.219Z,6.90
2023-02-17T14:16:32.292Z,6.93
2023-02-17T14:19:11.130Z,10.02
2023-02-17T14:21:46.248Z,8.38
2023-02-17T14:24:28.636Z,8.68
2023-02-17T14:27:05.831Z,7.60
2023-02-17T14:29:47.254Z,9.00
2023-02-17T14:32:35.206Z,8.80
2023-02-17T14:35:22.749Z,8.93
2023-02-17T14:37:55.172Z,9.38
2023-02-17T14:40:27.368Z,9.43
2023-02-17T14:42:57.784Z,8.95
2023-02-17T14:45:33.387Z,9.30
2023-02-17T14:48:03.718Z,7.38
2023-02-17T14:50:38.137Z,9.18
2023-02-17T14:53:17.204Z,8.90
2023-02-17T14:55:53.648Z,8.75
2023-02-17T14:58:26.676Z,8.73
2023-02-17T15:01:02.686Z,9.07
2023-02-17T15:03:33.334Z,8.38
2023-02-17T15:06:07.862Z,9.38
2023-02-17T15:08:39.606Z,10.25
2023-02-17T15:11:21.119Z,9.65
2023-02-17T15:13:51.653Z,10.57
2023-02-17T15:16:27.519Z,9.23
2023-02-17T15:19:00.995Z,9.60
2023-02-17T15:21:34.589Z,10.48
2023-02-17T15:24:07.076Z,10.32
2023-02-17T15:26:37.225Z,9.35
2023-02-17T15:29:19.284Z,9.88
2023-02-17T15:32:06.579Z,10.43
2023-02-17T15:34:37.901Z,17.33
2023-02-17T15:37:20.715Z,12.52
2023-02-17T15:39:52.078Z,11.27
2023-02-17T15:42:22.967Z,10.90
2023-02-17T15:44:54.616Z,10.02
2023-02-17T15:47:32.325Z,10.27
2023-02-17T15:50:05.194Z,10.65
2023-02-17T15:52:40.533Z,9.40
2023-02-17T15:55:11.304Z,9.43
2023-02-17T15:57:49.533Z,9.30
2023-02-17T16:00:22.486Z,8.57
2023-02-17T16:02:56.603Z,8.93
2023-02-17T16:05:30.457Z,9.27
2023-02-17T16:08:01.055Z,7.65
2023-02-17T16:10:33.576Z,7.45
2023-02-17T16:13:04.787Z,7.68
2023-02-17T16:15:36.247Z,7.80
2023-02-17T16:18:09.711Z,7.72
2023-02-17T16:20:42.848Z,7.30
2023-02-17T16:23:13.366Z,7.97
2023-02-17T16:25:48.553Z,7.60
2023-02-17T16:28:21.407Z,7.40
2023-02-17T16:30:55.316Z,8.55
2023-02-17T16:33:28.336Z,8.68
2023-02-17T16:35:58.680Z,8.63
2023-02-17T16:38:30.103Z,8.23
2023-02-17T16:41:02.594Z,8.75
2023-02-17T16:43:33.432Z,8.60
2023-02-17T16:46:08.417Z,9.70
2023-02-17T16:48:51.341Z,10.63
2023-02-17T16:51:22.884Z,9.52
2023-02-17T16:53:53.238Z,11.50
2023-02-17T16:56:32.254Z,12.02
2023-02-17T16:59:02.993Z,11.25
2023-02-17T17:01:33.410Z,10.85
2023-02-17T17:04:07.279Z,9.43
2023-02-17T17:09:08.661Z,8.82
2023-02-17T17:11:39.255Z,8.00
2023-02-17T17:14:12.660Z,8.05
2023-02-17T17:16:44.588Z,10.02
2023-02-17T17:19:18.947Z,10.00
2023-02-17T17:21:49.684Z,10.95
2023-02-17T17:24:22.369Z,11.05
2023-02-17T17:27:00.291Z,10.65
2023-02-17T17:29:32.003Z,12.15
2023-02-17T17:32:02.505Z,11.15
2023-02-17T17:34:35.886Z,11.07
2023-02-17T17:37:10.370Z,11.73
2023-02-17T17:39:43.610Z,11.23
2023-02-17T17:42:16.834Z,13.05
2023-02-17T17:44:47.355Z,12.77
2023-02-17T17:47:29.451Z,10.82
2023-02-17T17:50:03.656Z,13.15
2023-02-17T17:52:34.263Z,13.45
2023-02-17T17:55:05.061Z,13.88
2023-02-17T17:57:35.500Z,15.18
2023-02-17T18:00:08.908Z,15.32
2023-02-17T18:02:43.771Z,14.73
2023-02-17T18:05:16.914Z,16.67
2023-02-17T18:07:50.058Z,16.75
2023-02-17T18:10:27.974Z,17.90
2023-02-17T18:15:31.512Z,13.18
2023-02-17T18:18:02.261Z,15.10
2023-02-17T18:20:35.544Z,16.27
2023-02-17T18:23:06.277Z,15.18
2023-02-17T18:25:36.751Z,15.48
2023-02-17T18:28:07.608Z,15.82
2023-02-17T18:30:52.502Z,16.55
2023-02-17T18:33:30.062Z,17.85
2023-02-17T18:36:09.949Z,17.83
2023-02-17T18:38:40.395Z,18.45
2023-02-17T18:41:19.711Z,19.15
2023-02-17T18:43:51.023Z,19.23
2023-02-17T18:46:21.709Z,18.50
2023-02-17T18:48:52.537Z,20.48
2023-02-17T18:51:32.185Z,21.13
2023-02-17T18:54:03.611Z,21.42
2023-02-17T18:56:38.546Z,21.05
2023-02-17T18:59:10.096Z,19.80
2023-02-17T19:01:49.935Z,19.58
2023-02-17T19:04:20.146Z,21.05
2023-02-17T19:06:55.522Z,19.27
2023-02-17T19:09:25.852Z,20.63
2023-02-17T19:11:58.481Z,22.13
2023-02-17T19:14:29.284Z,21.98
2023-02-17T19:17:00.492Z,21.38
2023-02-17T19:19:34.152Z,21.60
2023-02-17T19:22:09.253Z,20.92
2023-02-17T19:24:44.272Z,17.85
2023-02-17T19:27:16.544Z,18.38
2023-02-17T19:29:47.205Z,17.38
2023-02-17T19:32:18.327Z,18.40
2023-02-17T19:34:50.339Z,19.40
2023-02-17T19:37:26.962Z,17.25
2023-02-17T19:39:57.922Z,17.50
2023-02-17T19:42:30.487Z,18.25
2023-02-17T19:45:07.933Z,17.58
2023-02-17T19:47:40.803Z,16.55
2023-02-17T19:50:12.437Z,16.83
2023-02-17T19:52:48.107Z,15.98
2023-02-17T19:55:19.175Z,16.23
2023-02-17T19:57:55.870Z,18.08
2023-02-17T20:00:29.759Z,16.13
2023-02-17T20:03:07.442Z,16.88
2023-02-17T20:05:41.274Z,16.85
2023-02-17T20:08:15.718Z,16.75
2023-02-17T20:10:55.500Z,17.63
2023-02-17T20:13:28.640Z,16.95
2023-02-17T20:16:01.898Z,18.02
2023-02-17T20:18:34.656Z,18.17
2023-02-17T20:21:10.305Z,19.27
2023-02-17T20:23:43.505Z,19.40
2023-02-17T20:26:17.153Z,18.27
2023-02-17T20:28:47.723Z,19.65
2023-02-17T20:31:18.928Z,15.40
2023-02-17T20:33:49.579Z,12.80
2023-02-17T20:36:22.287Z,13.25
2023-02-17T20:38:55.683Z,12.27
2023-02-17T20:41:29.640Z,11.40
2023-02-17T20:44:02.929Z,12.98
2023-02-17T20:46:34.246Z,13.23
2023-02-17T20:49:05.203Z,14.38
2023-02-17T20:51:35.797Z,17.15
2023-02-17T20:54:10.547Z,18.98
2023-02-17T20:56:43.199Z,19.80
2023-02-17T20:59:15.687Z,19.75
2023-02-17T21:01:46.348Z,19.77
2023-02-17T21:04:16.753Z,19.75
2023-02-17T21:06:48.153Z,19.75
2023-02-17T21:09:22.282Z,19.77
2023-02-17T21:11:53.142Z,21.08
2023-02-17T21:14:23.613Z,20.92
2023-02-17T21:16:54.074Z,20.08
2023-02-17T21:19:29.712Z,19.95
2023-02-17T21:22:00.052Z,20.98
2023-02-17T21:24:33.032Z,15.73
2023-02-17T21:27:03.301Z,12.68
2023-02-17T21:29:33.826Z,10.23
2023-02-17T21:32:04.907Z,8.95
2023-02-17T21:34:39.256Z,8.07
2023-02-17T21:37:10.914Z,8.57
2023-02-17T21:39:43.859Z,7.70
2023-02-17T21:42:14.118Z,7.38
2023-02-17T21:44:53.958Z,7.75
2023-02-17T21:47:24.562Z,7.55
2023-02-17T21:49:56.643Z,6.65
2023-02-17T21:52:26.820Z,7.03
2023-02-17T21:55:02.537Z,7.25
2023-02-17T21:57:34.207Z,6.43
2023-02-17T22:00:04.895Z,6.88
2023-02-17T22:02:35.271Z,6.97
2023-02-17T22:05:05.732Z,5.47
2023-02-17T22:07:36.005Z,6.55
2023-02-17T22:10:10.466Z,6.50
2023-02-17T22:12:42.108Z,6.63
2023-02-17T22:15:16.239Z,5.63
2023-02-17T22:17:48.112Z,6.32
2023-02-17T22:20:19.448Z,6.30
2023-02-17T22:22:49.745Z,6.43
2023-02-17T22:25:23.772Z,7.53
2023-02-17T22:27:54.584Z,6.55
2023-02-17T22:30:24.928Z,7.35
2023-02-17T22:32:55.267Z,6.38
2023-02-17T22:35:25.479Z,7.13
2023-02-17T22:37:57.621Z,6.88
2023-02-17T22:40:30.568Z,6.97
2023-02-17T22:43:00.774Z,7.22
2023-02-17T22:45:31.169Z,6.97
2023-02-17T22:48:02.243Z,7.78
2023-02-17T22:50:32.608Z,8.05
2023-02-17T22:53:02.868Z,7.32
2023-02-17T22:55:35.736Z,7.28
2023-02-17T22:58:06.191Z,8.20
2023-02-17T23:00:36.601Z,7.95
2023-02-17T23:03:07.107Z,8.18
2023-02-17T23:05:40.841Z,7.68
2023-02-17T23:08:11.438Z,7.78
2023-02-17T23:10:47.664Z,7.90
2023-02-17T23:13:19.014Z,7.10
2023-02-17T23:15:49.229Z,7.35
2023-02-17T23:18:21.805Z,8.02
2023-02-17T23:20:53.158Z,9.27
2023-02-17T23:23:23.509Z,8.13
2023-02-17T23:25:57.992Z,8.25
2023-02-17T23:28:28.822Z,7.85
2023-02-17T23:30:59.193Z,8.02
2023-02-17T23:33:32.560Z,8.45
2023-02-17T23:36:06.254Z,8.27
2023-02-17T23:38:37.225Z,7.60
2023-02-17T23:41:17.203Z,9.10
2023-02-17T23:43:47.406Z,9.23
2023-02-17T23:46:17.651Z,8.73
2023-02-17T23:48:48.216Z,9.15
2023-02-17T23:51:24.024Z,8.80
2023-02-17T23:53:57.411Z,8.05
2023-02-17T23:56:32.896Z,8.52
2023-02-17T23:59:03.463Z,6.55
